Accueil
METAR-TAF:

METAR-TAF

Aéroports :

Erfurt, Allemagne

latitude: 50-59N, longitude: 010-58E, altitude: 315 m

Observation

Le bulletin a été fait il y a 1 heure et 21 minutes, à 12:50 UTC
Vent 11 kt de est/nord-est, variant entre nord et est
Température 22°C
Humidité 35%
Pression 1022 hPa
Visibilité 10 km ou plus
pas de nuages en-dessous de 1500 mètres et pas de cumulonimbus.

METAR: EDDE 011250Z 06011KT 360V100 CAVOK 22/06 Q1022 NOSIG

Heure: 16:11 (14:11 UTC)

Prévision

Le bulletin a été fait il y a 3 heures et 11 minutes, à 11:00 UTC
Prévision valable du 01 à 12 UTC au 02 à 12 UTC
Vent 8 kt de est/nord-est
Visibilité 10 km ou plus
pas de nuages en-dessous de 1500 mètres et pas de cumulonimbus.
Evoluant progressivement
du 01 à 18 UTC au 01 à 20 UTC
Vent 3 kt de direction variable

TAF: EDDE 011100Z 0112/0212 06008KT CAVOK BECMG 0118/0120 VRB03KT

Observations et prévisions météorologiques de plus de 4000 aéroports (messages METAR et TAF).

Les stations disponibles sont représentées par des disques jaunes et rouges sur la carte.

Passer la souris dessus pour voir le nom de la station.

Cliquer dessus pour voir les observations et prévisions météorologiques.

Pour changer de carte: cliquez sur les boutons verts avec une croix noire pour zoomer, sur le bouton vert avec un tiret pour effectuer un zoom arrière, ou sur les flèches vertes pour les cartes adjacentes.


METAR-TAF: